createdAt,value
2022-12-21T00:02:18.823Z,20.80
2022-12-21T00:05:26.797Z,25.00
2022-12-21T00:08:36.479Z,21.60
2022-12-21T00:14:51.902Z,23.30
2022-12-21T00:17:59.603Z,27.60
2022-12-21T00:21:11.765Z,25.90
2022-12-21T00:24:19.892Z,22.50
2022-12-21T00:27:27.795Z,30.10
2022-12-21T00:30:36.194Z,23.60
2022-12-21T00:33:45.618Z,19.50
2022-12-21T00:36:56.201Z,20.50
2022-12-21T00:40:05.686Z,20.90
2022-12-21T00:43:15.232Z,22.10
2022-12-21T00:46:26.188Z,29.20
2022-12-21T00:49:34.186Z,19.60
2022-12-21T00:52:42.515Z,16.70
2022-12-21T00:56:01.161Z,21.30
2022-12-21T00:59:09.452Z,26.10
2022-12-21T01:02:17.949Z,26.70
2022-12-21T01:05:26.246Z,22.50
2022-12-21T01:08:34.621Z,20.50
2022-12-21T01:11:42.467Z,19.20
2022-12-21T01:14:50.652Z,21.20
2022-12-21T01:17:58.653Z,26.80
2022-12-21T01:21:09.087Z,18.80
2022-12-21T01:24:19.279Z,17.20
2022-12-21T01:27:28.061Z,18.30
2022-12-21T01:30:36.006Z,15.50
2022-12-21T01:33:44.589Z,22.30
2022-12-21T01:36:52.830Z,20.20
2022-12-21T01:40:00.934Z,18.80
2022-12-21T01:43:40.790Z,19.90
2022-12-21T01:46:52.420Z,20.00
2022-12-21T01:50:15.003Z,18.90
2022-12-21T01:53:30.661Z,21.30
2022-12-21T01:56:45.220Z,18.10
2022-12-21T02:00:00.589Z,23.00
2022-12-21T02:03:15.577Z,20.70
2022-12-21T02:06:31.888Z,28.70
2022-12-21T02:09:41.160Z,14.40
2022-12-21T02:12:52.878Z,23.80
2022-12-21T02:16:24.445Z,20.40
2022-12-21T02:20:11.565Z,20.00
2022-12-21T02:23:52.676Z,27.60
2022-12-21T02:27:40.270Z,20.30
2022-12-21T02:31:23.999Z,22.90
2022-12-21T02:34:43.301Z,19.10
2022-12-21T02:38:02.645Z,24.50
2022-12-21T02:41:24.923Z,22.30
2022-12-21T02:44:48.889Z,30.00
2022-12-21T02:48:07.657Z,20.30
2022-12-21T02:51:22.444Z,21.60
2022-12-21T02:54:30.949Z,18.20
2022-12-21T02:57:42.230Z,33.70
2022-12-21T03:01:11.637Z,16.90
2022-12-21T03:04:57.427Z,19.60
2022-12-21T03:08:23.037Z,24.10
2022-12-21T03:11:43.381Z,22.90
2022-12-21T03:15:05.357Z,30.00
2022-12-21T03:18:26.493Z,29.40
2022-12-21T03:21:41.714Z,17.40
2022-12-21T03:24:58.931Z,23.80
2022-12-21T03:28:14.914Z,30.00
2022-12-21T03:31:28.916Z,23.30
2022-12-21T03:34:43.455Z,29.90
2022-12-21T03:37:56.396Z,24.10
2022-12-21T03:41:12.643Z,27.80
2022-12-21T03:44:29.728Z,32.50
2022-12-21T03:47:43.578Z,22.50
2022-12-21T03:50:56.662Z,23.40
2022-12-21T03:54:12.574Z,35.50
2022-12-21T03:57:22.384Z,21.20
2022-12-21T04:03:43.260Z,23.90
2022-12-21T04:06:55.340Z,16.80
2022-12-21T04:10:09.342Z,19.00
2022-12-21T04:13:17.023Z,25.60
2022-12-21T04:16:25.186Z,21.40
2022-12-21T04:20:05.595Z,25.70
2022-12-21T04:23:33.285Z,23.30
2022-12-21T04:26:54.823Z,16.80
2022-12-21T04:30:02.452Z,31.70
2022-12-21T04:33:13.602Z,21.70
2022-12-21T04:36:41.242Z,19.70
2022-12-21T04:39:49.271Z,26.10
2022-12-21T04:42:57.257Z,20.00
2022-12-21T04:46:10.494Z,27.20
2022-12-21T04:49:18.393Z,29.60
2022-12-21T04:52:26.946Z,19.40
2022-12-21T04:55:34.943Z,18.40
2022-12-21T04:58:43.791Z,20.90
2022-12-21T05:01:52.248Z,16.70
2022-12-21T05:05:00.190Z,17.10
2022-12-21T05:08:09.010Z,23.10
2022-12-21T05:11:20.567Z,22.10
2022-12-21T05:14:28.518Z,28.30
2022-12-21T05:17:37.032Z,27.10
2022-12-21T05:20:53.404Z,18.60
2022-12-21T05:24:03.579Z,22.50
2022-12-21T05:27:12.239Z,33.00
2022-12-21T05:30:20.927Z,33.70
2022-12-21T05:33:29.273Z,31.30
2022-12-21T05:36:37.879Z,33.30
2022-12-21T05:39:45.740Z,18.90
2022-12-21T05:42:53.987Z,28.20
2022-12-21T05:46:05.937Z,29.20
2022-12-21T05:49:14.800Z,28.30
2022-12-21T05:52:22.641Z,20.50
2022-12-21T05:55:31.951Z,20.70
2022-12-21T05:58:39.864Z,22.60
2022-12-21T06:01:47.801Z,25.00
2022-12-21T06:04:56.275Z,32.80
2022-12-21T06:08:05.536Z,27.70
2022-12-21T06:11:17.036Z,39.50
2022-12-21T06:14:25.043Z,23.30
2022-12-21T06:17:33.995Z,14.10
2022-12-21T06:20:41.776Z,27.80
2022-12-21T06:23:54.060Z,21.00
2022-12-21T06:27:02.087Z,17.70
2022-12-21T06:30:14.740Z,27.00
2022-12-21T06:33:24.905Z,22.50
2022-12-21T06:36:34.828Z,27.30
2022-12-21T06:39:43.229Z,23.10
2022-12-21T06:42:51.420Z,18.80
2022-12-21T06:46:02.018Z,24.90
2022-12-21T06:49:09.961Z,21.10
2022-12-21T06:52:17.809Z,16.50
2022-12-21T06:55:26.070Z,23.30
2022-12-21T06:58:34.824Z,17.60
2022-12-21T07:01:43.031Z,24.50
2022-12-21T07:04:53.793Z,23.70
2022-12-21T07:08:01.479Z,29.60
2022-12-21T07:11:13.109Z,19.60
2022-12-21T07:14:21.520Z,18.40
2022-12-21T07:17:30.161Z,17.80
2022-12-21T07:20:38.118Z,21.40
2022-12-21T07:23:52.021Z,19.40
2022-12-21T07:27:02.399Z,26.50
2022-12-21T07:30:16.037Z,22.50
2022-12-21T07:33:24.842Z,23.20
2022-12-21T07:36:33.316Z,18.30
2022-12-21T07:39:41.504Z,28.10
2022-12-21T07:42:50.310Z,20.50
2022-12-21T07:45:59.061Z,21.00
2022-12-21T07:49:07.502Z,22.40
2022-12-21T07:52:15.314Z,25.10
2022-12-21T07:55:23.451Z,27.20
2022-12-21T07:58:31.466Z,17.80
2022-12-21T08:01:40.070Z,22.10
2022-12-21T08:04:48.254Z,26.80
2022-12-21T08:07:56.127Z,18.20
2022-12-21T08:11:03.830Z,23.20
2022-12-21T08:14:12.619Z,17.60
2022-12-21T08:17:23.577Z,18.30
2022-12-21T08:20:31.708Z,24.50
2022-12-21T08:23:40.587Z,24.10
2022-12-21T08:26:49.338Z,27.10
2022-12-21T08:29:58.348Z,24.80
2022-12-21T08:33:07.650Z,22.80
2022-12-21T08:36:19.134Z,27.90
2022-12-21T08:39:27.174Z,24.70
2022-12-21T08:42:35.027Z,24.50
2022-12-21T08:45:45.101Z,26.40
2022-12-21T08:48:53.810Z,20.10
2022-12-21T08:52:01.969Z,16.60
2022-12-21T08:55:13.255Z,21.20
2022-12-21T08:58:21.970Z,20.60
2022-12-21T09:01:30.643Z,33.00
2022-12-21T09:04:39.633Z,17.10
2022-12-21T09:07:48.415Z,28.40
2022-12-21T09:11:05.363Z,25.60
2022-12-21T09:14:13.265Z,15.30
2022-12-21T09:17:27.413Z,22.70
2022-12-21T09:20:37.343Z,24.20
2022-12-21T09:23:48.126Z,32.30
2022-12-21T09:26:56.103Z,19.60
2022-12-21T09:30:04.229Z,21.60
2022-12-21T09:33:12.815Z,26.80
2022-12-21T09:36:21.982Z,22.00
2022-12-21T09:39:30.229Z,24.30
2022-12-21T09:42:58.654Z,32.00
2022-12-21T09:46:14.820Z,28.50
2022-12-21T09:49:26.982Z,28.10
2022-12-21T09:52:38.941Z,24.10
2022-12-21T09:55:52.443Z,21.40
2022-12-21T09:59:05.435Z,31.10
2022-12-21T10:02:36.578Z,18.10
2022-12-21T10:06:04.337Z,23.00
2022-12-21T10:09:39.722Z,23.20
2022-12-21T10:13:04.495Z,24.60
2022-12-21T10:16:43.683Z,17.80
2022-12-21T10:20:04.408Z,18.10
2022-12-21T10:23:26.664Z,24.40
2022-12-21T10:26:39.979Z,33.00
2022-12-21T10:29:55.775Z,28.60
2022-12-21T10:33:04.975Z,27.80
2022-12-21T10:36:21.106Z,26.80
2022-12-21T10:39:30.731Z,25.30
2022-12-21T10:42:44.305Z,29.10
2022-12-21T10:45:53.518Z,31.80
2022-12-21T10:49:09.120Z,26.00
2022-12-21T10:52:40.200Z,29.70
2022-12-21T10:55:50.250Z,19.90
2022-12-21T10:59:08.170Z,29.40
2022-12-21T11:02:41.668Z,26.00
2022-12-21T11:05:50.142Z,30.30
2022-12-21T11:09:00.144Z,25.20
2022-12-21T11:16:00.641Z,31.60
2022-12-21T11:19:03.508Z,20.30
2022-12-21T11:22:57.288Z,31.40
2022-12-21T11:25:46.989Z,24.60
2022-12-21T11:29:02.998Z,29.70
2022-12-21T11:32:14.981Z,30.20
2022-12-21T11:35:27.299Z,25.20
2022-12-21T11:38:40.978Z,35.20
2022-12-21T11:41:56.682Z,26.90
2022-12-21T11:45:26.759Z,19.40
2022-12-21T11:48:55.129Z,15.70
2022-12-21T11:52:24.702Z,30.60
2022-12-21T11:55:41.733Z,24.20
2022-12-21T11:59:22.427Z,22.90
2022-12-21T12:02:58.748Z,40.90
2022-12-21T12:06:43.572Z,34.30
2022-12-21T12:10:13.547Z,27.20
2022-12-21T12:13:43.688Z,36.30
2022-12-21T12:17:11.204Z,32.40
2022-12-21T12:20:46.265Z,19.10
2022-12-21T12:24:13.665Z,22.30
2022-12-21T12:27:44.287Z,30.80
2022-12-21T12:31:15.536Z,30.90
2022-12-21T12:34:59.611Z,32.30
2022-12-21T12:38:21.287Z,28.50
2022-12-21T12:41:46.465Z,25.90
2022-12-21T12:45:09.201Z,31.90
2022-12-21T12:48:32.271Z,27.10
2022-12-21T12:51:45.274Z,33.70
2022-12-21T12:55:13.813Z,28.20
2022-12-21T12:58:31.514Z,25.20
2022-12-21T13:01:54.424Z,31.20
2022-12-21T13:05:34.095Z,31.10
2022-12-21T13:08:58.487Z,27.90
2022-12-21T13:12:14.512Z,31.40
2022-12-21T13:15:37.352Z,24.10
2022-12-21T13:18:52.009Z,18.80
2022-12-21T13:22:06.819Z,33.70
2022-12-21T13:25:27.227Z,31.90
2022-12-21T13:28:45.621Z,23.90
2022-12-21T13:32:00.872Z,34.80
2022-12-21T13:35:23.140Z,15.80
2022-12-21T13:38:38.688Z,34.50
2022-12-21T13:41:53.013Z,22.70
2022-12-21T13:45:06.572Z,26.50
2022-12-21T13:48:20.030Z,31.50
2022-12-21T13:51:44.354Z,29.40
2022-12-21T13:55:07.152Z,22.40
2022-12-21T13:58:31.828Z,23.50
2022-12-21T14:01:51.349Z,38.80
2022-12-21T14:08:43.608Z,22.00
2022-12-21T14:12:37.697Z,29.40
2022-12-21T14:16:02.109Z,29.20
2022-12-21T14:19:23.075Z,33.70
2022-12-21T14:22:49.607Z,32.00
2022-12-21T14:25:59.123Z,37.50
2022-12-21T14:29:19.747Z,33.10
2022-12-21T14:32:28.055Z,34.10
2022-12-21T14:35:45.212Z,35.30
2022-12-21T14:39:35.760Z,30.50
2022-12-21T14:43:01.539Z,30.60
2022-12-21T14:46:30.473Z,29.50
2022-12-21T14:49:40.670Z,32.80
2022-12-21T14:53:03.804Z,30.10
2022-12-21T14:56:18.818Z,37.50
2022-12-21T14:59:28.556Z,25.20
2022-12-21T15:02:47.983Z,32.10
2022-12-21T15:06:09.255Z,32.20
2022-12-21T15:09:31.576Z,31.00
2022-12-21T15:12:46.753Z,39.10
2022-12-21T15:16:18.779Z,37.10
2022-12-21T15:19:53.089Z,31.50
2022-12-21T15:23:01.904Z,41.10
2022-12-21T15:26:21.258Z,33.80
2022-12-21T15:29:36.284Z,33.10
2022-12-21T15:32:55.032Z,27.50
2022-12-21T15:36:09.657Z,34.10
2022-12-21T15:39:28.289Z,32.00
2022-12-21T15:42:45.807Z,30.70
2022-12-21T15:46:01.716Z,39.50
2022-12-21T15:49:21.624Z,32.80
2022-12-21T15:52:36.307Z,34.10
2022-12-21T15:55:49.679Z,31.10
2022-12-21T15:58:59.918Z,30.00
2022-12-21T16:02:22.019Z,30.10
2022-12-21T16:05:34.984Z,24.70
2022-12-21T16:08:46.015Z,31.80
2022-12-21T16:12:19.841Z,29.60
2022-12-21T16:15:38.829Z,35.90
2022-12-21T16:18:46.808Z,32.50
2022-12-21T16:21:56.193Z,35.40
2022-12-21T16:25:38.169Z,36.40
2022-12-21T16:28:48.552Z,31.30
2022-12-21T16:31:58.103Z,30.50
2022-12-21T16:35:08.180Z,33.10
2022-12-21T16:38:16.506Z,33.20
2022-12-21T16:41:25.323Z,36.30
2022-12-21T16:44:46.052Z,34.10
2022-12-21T16:48:22.014Z,32.50
2022-12-21T16:51:44.528Z,38.90
2022-12-21T16:54:52.263Z,34.00
2022-12-21T16:58:15.324Z,36.50
2022-12-21T17:01:27.754Z,39.00
2022-12-21T17:04:39.447Z,36.10
2022-12-21T17:07:49.353Z,36.10
2022-12-21T17:11:09.019Z,33.50
2022-12-21T17:14:20.074Z,30.60
2022-12-21T17:17:46.484Z,36.50
2022-12-21T17:21:15.905Z,37.10
2022-12-21T17:24:38.650Z,36.50
2022-12-21T17:27:57.579Z,37.10
2022-12-21T17:31:14.862Z,33.40
2022-12-21T17:34:28.754Z,35.50
2022-12-21T17:37:36.796Z,37.40
2022-12-21T17:40:45.190Z,39.00
2022-12-21T17:43:56.189Z,35.50
2022-12-21T17:47:11.362Z,33.60
2022-12-21T17:50:25.528Z,38.30
2022-12-21T17:53:34.233Z,32.60
2022-12-21T17:56:43.567Z,36.40
2022-12-21T17:59:51.612Z,38.60
2022-12-21T18:03:14.945Z,35.80
2022-12-21T18:06:25.268Z,44.20
2022-12-21T18:09:34.841Z,41.40
2022-12-21T18:12:42.685Z,38.40
2022-12-21T18:16:00.182Z,42.60
2022-12-21T18:19:15.030Z,30.40
2022-12-21T18:22:22.769Z,34.40
2022-12-21T18:25:30.610Z,34.10
2022-12-21T18:28:40.411Z,32.90
2022-12-21T18:34:56.180Z,27.70
2022-12-21T18:38:11.108Z,30.90
2022-12-21T18:41:22.604Z,31.90
2022-12-21T18:44:33.295Z,33.20
2022-12-21T18:47:41.545Z,26.30
2022-12-21T18:50:49.630Z,31.80
2022-12-21T18:53:59.232Z,36.40
2022-12-21T18:57:18.579Z,29.60
2022-12-21T19:00:27.115Z,24.80
2022-12-21T19:03:35.467Z,30.40
2022-12-21T19:06:43.955Z,34.10
2022-12-21T19:09:52.382Z,27.80
2022-12-21T19:13:06.852Z,32.60
2022-12-21T19:16:28.017Z,30.00
2022-12-21T19:19:36.938Z,32.10
2022-12-21T19:22:45.219Z,34.80
2022-12-21T19:25:56.991Z,34.60
2022-12-21T19:29:15.053Z,41.30
2022-12-21T19:32:23.084Z,42.90
2022-12-21T19:35:32.661Z,41.60
2022-12-21T19:38:40.634Z,40.60
2022-12-21T19:41:48.460Z,37.60
2022-12-21T19:44:57.418Z,40.40
2022-12-21T19:48:11.316Z,40.70
2022-12-21T19:51:19.462Z,46.40
2022-12-21T19:54:27.747Z,39.80
2022-12-21T19:57:41.554Z,46.20
2022-12-21T20:00:49.656Z,42.90
2022-12-21T20:03:57.532Z,41.30
2022-12-21T20:07:08.327Z,40.70
2022-12-21T20:10:17.898Z,44.20
2022-12-21T20:13:26.529Z,44.90
2022-12-21T20:16:35.481Z,47.80
2022-12-21T20:19:43.793Z,47.70
2022-12-21T20:22:54.555Z,46.30
2022-12-21T20:26:02.306Z,42.90
2022-12-21T20:29:16.240Z,53.30
2022-12-21T20:32:25.597Z,46.20
2022-12-21T20:39:13.099Z,46.40
2022-12-21T20:42:44.185Z,48.00
2022-12-21T20:45:52.009Z,45.80
2022-12-21T20:49:00.472Z,45.60
2022-12-21T20:52:18.755Z,61.80
2022-12-21T20:55:44.997Z,54.90
2022-12-21T20:58:53.067Z,47.50
2022-12-21T21:02:01.939Z,54.00
2022-12-21T21:05:22.248Z,46.80
2022-12-21T21:08:34.786Z,51.50
2022-12-21T21:11:54.932Z,49.40
2022-12-21T21:15:05.633Z,43.00
2022-12-21T21:18:23.437Z,53.40
2022-12-21T21:21:53.911Z,47.00
2022-12-21T21:25:03.392Z,54.80
2022-12-21T21:28:22.410Z,48.50
2022-12-21T21:31:30.391Z,53.80
2022-12-21T21:34:38.715Z,53.40
2022-12-21T21:38:08.860Z,49.40
2022-12-21T21:41:34.274Z,42.90
2022-12-21T21:44:42.887Z,50.90
2022-12-21T21:47:51.000Z,54.10
2022-12-21T21:50:58.932Z,53.10
2022-12-21T21:54:07.261Z,52.80
2022-12-21T21:57:33.014Z,47.20
2022-12-21T22:00:43.396Z,45.90
2022-12-21T22:03:52.699Z,40.90
2022-12-21T22:10:28.163Z,50.00
2022-12-21T22:13:36.588Z,46.20
2022-12-21T22:20:46.703Z,51.10
2022-12-21T22:24:20.683Z,50.20
2022-12-21T22:27:46.242Z,53.00
2022-12-21T22:31:23.824Z,46.10
2022-12-21T22:34:59.596Z,56.90
2022-12-21T22:38:28.023Z,55.10
2022-12-21T22:41:53.503Z,54.30
2022-12-21T22:45:19.219Z,56.60
2022-12-21T22:48:27.311Z,53.30
2022-12-21T22:51:36.971Z,55.40
2022-12-21T22:54:45.234Z,50.20
2022-12-21T22:57:53.321Z,55.90
2022-12-21T23:01:02.746Z,49.60
2022-12-21T23:04:21.042Z,55.50
2022-12-21T23:07:29.387Z,58.70
2022-12-21T23:10:39.005Z,55.80
2022-12-21T23:14:04.961Z,50.70
2022-12-21T23:17:40.805Z,54.20
2022-12-21T23:21:09.027Z,51.30
2022-12-21T23:24:47.181Z,41.90
2022-12-21T23:27:58.219Z,49.20
2022-12-21T23:31:38.387Z,52.90
2022-12-21T23:35:03.503Z,59.90
2022-12-21T23:38:31.928Z,50.50
2022-12-21T23:41:57.652Z,48.20
2022-12-21T23:45:07.001Z,54.80
2022-12-21T23:48:37.091Z,53.00
2022-12-21T23:52:03.140Z,55.10
2022-12-21T23:55:35.979Z,52.80
2022-12-21T23:59:01.198Z,64.10
